Time;durP1;ratioP1;P1;durP2;ratioP2;P2;SDS_P1;SDS_P2;PMS_P1;PMS_P2;Temp;Humidity;BMP_temperature;BMP_pressure;BME280_temperature;BME280_humidity;BME280_pressure;Samples;Min_cycle;Max_cycle;Signal;HPM_P1;HPM_P2
2021/12/21 05:13:07;;;;;;;;;;;;;;;3.52;100.00;98989.59;5606284;23;19927;-68
2021/12/21 05:15:35;;;;;;;;;;;;;;;3.53;100.00;98993.16;4937621;29;19943;-68
2021/12/21 05:18:02;;;;;;;;;;;;;;;3.53;100.00;98990.41;4937319;29;19927;-69
2021/12/21 05:20:30;;;;;;;;;;;;;;;3.54;100.00;98990.09;4934796;29;20231;-68
2021/12/21 05:22:57;;;;;;;;;;;;;;;3.58;100.00;98984.69;4931987;29;19957;-69
2021/12/21 05:25:24;;;;;;;;;;;;;;;3.56;100.00;98992.50;4932864;29;19932;-68
2021/12/21 05:28:24;;;;;;;;;;;;;;;3.57;100.00;98988.63;4939046;29;19991;-69
2021/12/21 05:30:51;;;;;;;;;;;;;;;3.59;100.00;98987.13;4937811;29;19934;-69
2021/12/21 05:33:18;;;;;;;;;;;;;;;3.64;100.00;98991.66;4937215;29;19931;-69
2021/12/21 05:35:48;;;;;;;;;;;;;;;3.65;100.00;98990.50;4937584;29;19930;-68
2021/12/21 05:38:19;;;;;;;;;;;;;;;3.70;100.00;98991.09;4936745;29;19930;-69
2021/12/21 05:40:47;;;;;;;;;;;;;;;3.74;100.00;98989.28;4936260;29;20030;-69
2021/12/21 05:43:15;;;;;;;;;;;;;;;3.75;100.00;98990.09;4918555;29;19931;-68
2021/12/21 05:45:42;;;;;;;;;;;;;;;3.81;100.00;98991.53;4924588;29;19938;-68
2021/12/21 05:48:09;;;;;;;;;;;;;;;3.83;100.00;98994.75;4944100;29;19933;-68
2021/12/21 05:50:37;;;;;;;;;;;;;;;3.80;100.00;98998.19;4952058;29;19935;-69
2021/12/21 05:53:04;;;;;;;;;;;;;;;3.79;100.00;99010.44;4941006;29;20209;-69
2021/12/21 05:55:32;;;;;;;;;;;;;;;3.78;100.00;99000.50;4933543;29;19988;-69
2021/12/21 05:58:00;;;;;;;;;;;;;;;3.79;100.00;99000.16;4947788;29;19937;-69
2021/12/21 06:00:28;;;;;;;;;;;;;;;3.82;100.00;98995.91;4937754;29;19931;-69
2021/12/21 06:02:56;;;;;;;;;;;;;;;3.86;100.00;99000.41;4936587;29;19931;-69
2021/12/21 06:05:24;;;;;;;;;;;;;;;3.85;100.00;99001.59;4936612;29;19935;-69
2021/12/21 06:07:53;;;;;;;;;;;;;;;3.85;100.00;99003.53;4927540;29;19938;-69
2021/12/21 06:10:32;;;;;;;;;;;;;;;3.89;100.00;99008.06;4936531;29;19927;-69
2021/12/21 06:26:17;;;;;;;;;;;;;;;3.96;100.00;99004.75;4936724;29;19935;-68
2021/12/21 06:28:47;;;;;;;;;;;;;;;3.95;100.00;99009.47;4935640;29;19937;-69
2021/12/21 06:31:15;;;;;;;;;;;;;;;4.00;100.00;99002.94;4925667;29;19930;-69
2021/12/21 06:33:42;;;;;;;;;;;;;;;4.01;100.00;99003.75;4921252;29;19931;-69
2021/12/21 06:36:10;;;;;;;;;;;;;;;3.97;100.00;99001.66;4931587;29;19927;-68
2021/12/21 06:38:37;;;;;;;;;;;;;;;3.95;100.00;99003.94;4928477;29;19933;-69
2021/12/21 06:41:05;;;;;;;;;;;;;;;3.94;100.00;99010.63;4935989;29;19935;-69
2021/12/21 06:43:33;;;;;;;;;;;;;;;3.93;100.00;99008.19;4922277;29;19931;-69
2021/12/21 06:51:48;;;;;;;;;;;;;;;3.81;100.00;99014.47;4923162;29;20595;-69
2021/12/21 06:54:16;;;;;;;;;;;;;;;3.83;100.00;99012.19;4928649;29;20189;-69
2021/12/21 06:56:43;;;;;;;;;;;;;;;3.83;100.00;99003.06;4934919;29;19930;-68
2021/12/21 06:59:11;;;;;;;;;;;;;;;3.82;100.00;99007.78;4922916;29;19931;-69
2021/12/21 07:01:39;;;;;;;;;;;;;;;3.84;100.00;99012.97;4928136;29;19931;-69
2021/12/21 07:04:11;;;;;;;;;;;;;;;3.86;100.00;99016.22;4923508;29;19935;-68
2021/12/21 07:06:40;;;;;;;;;;;;;;;3.89;100.00;99021.06;4903873;29;20355;-69
2021/12/21 07:11:50;;;;;;;;;;;;;;;3.98;100.00;99027.38;4925087;29;19942;-68
2021/12/21 07:19:51;;;;;;;;;;;;;;;4.10;100.00;99035.75;4935072;29;19934;-69
2021/12/21 07:22:20;;;;;;;;;;;;;;;4.16;100.00;99047.44;4929643;29;19934;-68
2021/12/21 07:24:47;;;;;;;;;;;;;;;4.17;100.00;99040.72;4931498;29;19931;-69
2021/12/21 07:27:15;;;;;;;;;;;;;;;4.19;100.00;99052.25;4936537;29;20255;-69
2021/12/21 07:29:43;;;;;;;;;;;;;;;4.16;100.00;99056.50;4925398;29;19927;-69
2021/12/21 07:32:10;;;;;;;;;;;;;;;4.19;100.00;99050.31;4931217;29;20248;-69
2021/12/21 07:34:38;;;;;;;;;;;;;;;4.14;100.00;99060.75;4924390;29;20316;-69
2021/12/21 07:37:09;;;;;;;;;;;;;;;4.22;100.00;99062.66;4935484;29;19930;-69
2021/12/21 07:39:37;;;;;;;;;;;;;;;4.24;100.00;99063.94;4937870;29;19938;-69
2021/12/21 07:42:15;;;;;;;;;;;;;;;4.30;100.00;99062.63;4938026;29;19937;-69
2021/12/21 07:44:42;;;;;;;;;;;;;;;4.33;100.00;99061.09;4937782;29;19938;-69
2021/12/21 07:47:10;;;;;;;;;;;;;;;4.32;100.00;99059.50;4937312;29;20425;-69
2021/12/21 07:49:37;;;;;;;;;;;;;;;4.38;100.00;99063.66;4937937;29;20200;-69
2021/12/21 07:52:08;;;;;;;;;;;;;;;4.42;100.00;99059.91;4938605;29;19930;-69
2021/12/21 07:54:36;;;;;;;;;;;;;;;4.41;100.00;99058.28;4943265;29;19934;-69
2021/12/21 07:57:06;;;;;;;;;;;;;;;4.43;100.00;99057.91;4937692;29;19931;-69
2021/12/21 07:59:35;;;;;;;;;;;;;;;4.46;100.00;99060.03;4923426;29;19930;-69
2021/12/21 08:02:02;;;;;;;;;;;;;;;4.50;100.00;99055.41;4926744;29;19938;-71
2021/12/21 08:04:32;;;;;;;;;;;;;;;4.56;100.00;99062.38;4919062;29;20054;-69
2021/12/21 08:07:06;;;;;;;;;;;;;;;4.59;100.00;99058.94;4921672;29;19931;-69
2021/12/21 08:09:39;;;;;;;;;;;;;;;4.59;100.00;99056.97;4913064;29;20308;-68
2021/12/21 08:12:13;;;;;;;;;;;;;;;4.64;100.00;99053.19;4939888;29;20678;-68
2021/12/21 08:14:41;;;;;;;;;;;;;;;4.69;100.00;99057.69;4938213;29;19934;-68
2021/12/21 08:17:08;;;;;;;;;;;;;;;4.67;100.00;99058.03;4924379;29;19934;-68
2021/12/21 08:19:36;;;;;;;;;;;;;;;4.76;100.00;99063.50;4931400;29;20205;-68
2021/12/21 08:22:04;;;;;;;;;;;;;;;4.82;100.00;99062.16;4937836;29;19934;-68
2021/12/21 08:24:31;;;;;;;;;;;;;;;4.87;100.00;99064.66;4931599;29;20256;-80
2021/12/21 08:27:00;;;;;;;;;;;;;;;4.90;100.00;99072.31;4935071;29;19930;-66
2021/12/21 08:29:27;;;;;;;;;;;;;;;4.94;100.00;99076.81;4936590;29;19930;-68
2021/12/21 08:31:56;;;;;;;;;;;;;;;4.95;100.00;99069.31;4927678;29;19934;-67
2021/12/21 08:34:23;;;;;;;;;;;;;;;4.97;100.00;99076.13;4935554;29;19936;-67
2021/12/21 08:36:52;;;;;;;;;;;;;;;4.95;100.00;99070.13;4927161;29;20209;-67
2021/12/21 08:39:23;;;;;;;;;;;;;;;4.93;100.00;99068.84;4930222;29;20308;-67
2021/12/21 08:41:56;;;;;;;;;;;;;;;4.97;100.00;99078.91;4931824;29;19927;-67
2021/12/21 08:44:24;;;;;;;;;;;;;;;4.98;100.00;99075.00;4923570;29;19961;-67
2021/12/21 08:46:52;;;;;;;;;;;;;;;5.03;100.00;99085.06;4935567;29;19937;-67
2021/12/21 08:49:20;;;;;;;;;;;;;;;5.04;100.00;99083.88;4914062;29;19931;-67
2021/12/21 08:51:47;;;;;;;;;;;;;;;5.05;100.00;99088.28;4936865;29;19931;-67
2021/12/21 08:54:18;;;;;;;;;;;;;;;5.03;100.00;99085.06;4934262;29;19961;-67
2021/12/21 08:56:48;;;;;;;;;;;;;;;5.04;100.00;99086.66;4932816;29;19954;-66
2021/12/21 08:59:16;;;;;;;;;;;;;;;5.09;100.00;99092.00;4926628;29;19935;-66
2021/12/21 09:01:44;;;;;;;;;;;;;;;5.14;100.00;99091.78;4937825;29;20624;-67
2021/12/21 09:04:15;;;;;;;;;;;;;;;5.12;100.00;99091.31;4926466;29;19930;-67
2021/12/21 09:06:43;;;;;;;;;;;;;;;5.13;100.00;99098.50;4931012;29;19931;-67
2021/12/21 09:09:10;;;;;;;;;;;;;;;5.10;100.00;99097.22;4935714;29;19934;-67
2021/12/21 09:11:38;;;;;;;;;;;;;;;5.07;100.00;99099.84;4927191;29;20316;-68
2021/12/21 09:14:05;;;;;;;;;;;;;;;5.09;100.00;99100.31;4916417;29;20220;-67
2021/12/21 09:16:33;;;;;;;;;;;;;;;5.10;100.00;99104.72;4928280;29;19930;-67
2021/12/21 09:19:02;;;;;;;;;;;;;;;5.15;100.00;99108.09;4934906;29;19926;-67
2021/12/21 09:21:30;;;;;;;;;;;;;;;5.18;100.00;99104.59;4937093;29;20036;-67
2021/12/21 09:23:58;;;;;;;;;;;;;;;5.20;100.00;99107.88;4935582;29;19931;-67
2021/12/21 09:26:25;;;;;;;;;;;;;;;5.23;100.00;99107.16;4936886;29;19938;-67
2021/12/21 09:28:53;;;;;;;;;;;;;;;5.22;100.00;99101.97;4935604;29;19927;-67
2021/12/21 09:31:21;;;;;;;;;;;;;;;5.24;100.00;99105.19;4935528;29;19930;-67
2021/12/21 09:33:48;;;;;;;;;;;;;;;5.24;100.00;99105.19;4935651;29;19927;-67
2021/12/21 09:36:15;;;;;;;;;;;;;;;5.24;100.00;99106.00;4934907;29;19942;-67
2021/12/21 09:38:43;;;;;;;;;;;;;;;5.25;100.00;99110.41;4936155;29;20320;-67
2021/12/21 09:41:11;;;;;;;;;;;;;;;5.25;100.00;99106.84;4935523;29;19930;-67
2021/12/21 09:43:41;;;;;;;;;;;;;;;5.20;100.00;99113.41;4929409;29;19938;-67
2021/12/21 09:46:08;;;;;;;;;;;;;;;5.21;100.00;99108.66;4919864;29;19935;-68
2021/12/21 09:48:36;;;;;;;;;;;;;;;5.23;100.00;99115.47;4923360;29;20626;-69
2021/12/21 09:51:04;;;;;;;;;;;;;;;5.27;100.00;99110.88;4930279;29;20256;-72
2021/12/21 09:53:33;;;;;;;;;;;;;;;5.26;100.00;99109.25;4926809;29;20505;-70
2021/12/21 09:56:02;;;;;;;;;;;;;;;5.27;100.00;99105.34;4937954;29;20223;-73
2021/12/21 09:58:30;;;;;;;;;;;;;;;5.28;100.00;99111.69;4933969;29;20331;-68
2021/12/21 10:00:58;;;;;;;;;;;;;;;5.25;100.00;99104.06;4926201;29;20324;-68
2021/12/21 10:03:25;;;;;;;;;;;;;;;5.27;100.00;99107.28;4932577;29;19937;-64
2021/12/21 10:06:01;;;;;;;;;;;;;;;5.26;100.00;99095.38;4936393;29;20231;-67
2021/12/21 10:08:30;;;;;;;;;;;;;;;5.26;100.00;99106.47;4935384;29;19938;-67
2021/12/21 10:10:57;;;;;;;;;;;;;;;5.29;100.00;99100.25;4936298;29;19935;-67
2021/12/21 10:13:26;;;;;;;;;;;;;;;5.31;100.00;99100.72;4934913;29;19931;-67
2021/12/21 10:15:53;;;;;;;;;;;;;;;5.32;100.00;99093.22;4935467;29;19931;-67
2021/12/21 10:18:22;;;;;;;;;;;;;;;5.35;100.00;99091.72;4938711;29;19930;-67
2021/12/21 10:20:49;;;;;;;;;;;;;;;5.40;100.00;99086.75;4934595;29;19939;-67
2021/12/21 10:23:34;;;;;;;;;;;;;;;5.43;100.00;99088.03;4935724;29;19934;-67
2021/12/21 10:26:04;;;;;;;;;;;;;;;5.51;100.00;99087.09;4934210;29;19942;-67
2021/12/21 10:28:38;;;;;;;;;;;;;;;5.52;100.00;99075.69;4934993;29;20323;-67
2021/12/21 10:31:07;;;;;;;;;;;;;;;5.54;100.00;99076.13;4936490;29;19927;-67
2021/12/21 10:33:35;;;;;;;;;;;;;;;5.56;100.00;99070.22;4934363;29;19927;-67
2021/12/21 10:36:04;;;;;;;;;;;;;;;5.55;100.00;99065.84;4935294;29;19930;-67
2021/12/21 10:38:33;;;;;;;;;;;;;;;5.62;100.00;99075.22;4934686;29;19931;-67
2021/12/21 10:41:06;;;;;;;;;;;;;;;5.64;100.00;99078.47;4935134;29;20248;-67
2021/12/21 10:43:34;;;;;;;;;;;;;;;5.64;100.00;99081.22;4935701;29;19927;-67
2021/12/21 10:46:02;;;;;;;;;;;;;;;5.63;100.00;99071.28;4929474;29;20613;-67
2021/12/21 10:48:35;;;;;;;;;;;;;;;5.71;100.00;99067.59;4925390;29;19927;-67
2021/12/21 10:51:04;;;;;;;;;;;;;;;5.69;100.00;99061.56;4934784;29;19934;-67
2021/12/21 10:53:32;;;;;;;;;;;;;;;5.75;100.00;99065.72;4931518;29;19931;-67
2021/12/21 10:56:00;;;;;;;;;;;;;;;5.79;100.00;99057.53;4935442;29;19938;-67
2021/12/21 10:58:29;;;;;;;;;;;;;;;5.80;100.00;99064.69;4916548;29;20560;-68
2021/12/21 11:01:02;;;;;;;;;;;;;;;5.84;100.00;99060.06;4917005;29;19931;-67
2021/12/21 11:03:32;;;;;;;;;;;;;;;5.86;100.00;99063.31;4924021;29;19930;-67
2021/12/21 11:06:16;;;;;;;;;;;;;;;5.86;100.00;99057.78;4934538;29;20312;-68
2021/12/21 11:08:46;;;;;;;;;;;;;;;5.88;100.00;99056.28;4921923;29;20307;-68
2021/12/21 11:11:28;;;;;;;;;;;;;;;5.90;100.00;99048.41;4935410;29;19927;-68
2021/12/21 11:14:04;;;;;;;;;;;;;;;5.93;100.00;99044.94;4932865;29;19935;-67
2021/12/21 11:16:34;;;;;;;;;;;;;;;5.94;100.00;99045.75;4931752;29;20662;-67
2021/12/21 11:19:03;;;;;;;;;;;;;;;5.95;100.00;99039.84;4936201;29;19931;-67
2021/12/21 11:21:31;;;;;;;;;;;;;;;5.94;100.00;99054.88;4941397;29;19930;-67
2021/12/21 11:24:03;;;;;;;;;;;;;;;5.97;100.00;99053.34;4935618;29;19927;-68
2021/12/21 11:26:31;;;;;;;;;;;;;;;5.99;100.00;99048.28;4935806;29;19927;-67
2021/12/21 11:29:01;;;;;;;;;;;;;;;6.02;100.00;99046.75;4934604;29;19931;-67
2021/12/21 11:31:29;;;;;;;;;;;;;;;6.03;100.00;99032.53;4935217;29;19957;-67
2021/12/21 11:33:57;;;;;;;;;;;;;;;6.05;100.00;99041.31;4935574;29;19938;-68
2021/12/21 11:39:13;;;;;;;;;;;;;;;6.00;100.00;99037.97;4915780;29;19927;-67
2021/12/21 11:41:41;;;;;;;;;;;;;;;6.02;100.00;99038.41;4916240;29;19935;-67
2021/12/21 11:44:12;;;;;;;;;;;;;;;6.02;100.00;99033.69;4916220;29;19932;-67
2021/12/21 11:46:50;;;;;;;;;;;;;;;6.01;100.00;99031.28;4916153;29;19927;-67
2021/12/21 11:49:37;;;;;;;;;;;;;;;5.93;100.00;99022.72;4915618;29;19931;-67
2021/12/21 11:52:14;;;;;;;;;;;;;;;5.88;100.00;99034.06;4916351;29;20512;-67
2021/12/21 11:54:52;;;;;;;;;;;;;;;5.84;100.00;99026.75;4915605;29;19931;-67
2021/12/21 11:57:32;;;;;;;;;;;;;;;5.81;100.00;99017.16;4915545;29;19927;-67
2021/12/21 12:00:11;;;;;;;;;;;;;;;5.71;100.00;99014.88;4916029;29;19935;-67
2021/12/21 12:02:39;;;;;;;;;;;;;;;5.67;100.00;99016.69;4916397;29;19931;-67
2021/12/21 12:05:34;;;;;;;;;;;;;;;5.62;100.00;99011.41;4936260;29;19930;-67
2021/12/21 12:08:09;;;;;;;;;;;;;;;5.63;100.00;99009.41;4932381;29;19942;-67
2021/12/21 12:10:56;;;;;;;;;;;;;;;5.60;100.00;99005.38;4935621;29;19931;-67
2021/12/21 12:13:26;;;;;;;;;;;;;;;5.60;100.00;98999.81;4938009;29;20580;-67
2021/12/21 12:15:55;;;;;;;;;;;;;;;5.62;100.00;98997.53;4937928;29;19934;-67
2021/12/21 12:18:29;;;;;;;;;;;;;;;5.65;100.00;98996.81;4937766;29;19931;-67
2021/12/21 12:20:57;;;;;;;;;;;;;;;5.68;100.00;98995.31;4937586;29;19938;-67
2021/12/21 12:23:24;;;;;;;;;;;;;;;5.68;100.00;98998.91;4937896;29;19938;-67
2021/12/21 12:25:57;;;;;;;;;;;;;;;5.71;100.00;98995.44;4938062;29;19937;-67
2021/12/21 12:28:26;;;;;;;;;;;;;;;5.70;100.00;98998.53;4938017;29;19935;-67
2021/12/21 12:30:55;;;;;;;;;;;;;;;5.70;100.00;98991.03;4937820;29;20236;-67
2021/12/21 12:33:22;;;;;;;;;;;;;;;5.67;100.00;98985.41;4935642;29;19930;-67
2021/12/21 12:35:49;;;;;;;;;;;;;;;5.65;100.00;98985.72;4918689;29;19931;-67
2021/12/21 12:38:21;;;;;;;;;;;;;;;5.56;100.00;98976.72;4921430;29;20370;-67
2021/12/21 12:40:53;;;;;;;;;;;;;;;5.55;100.00;98980.66;4936955;29;20319;-67
2021/12/21 12:43:22;;;;;;;;;;;;;;;5.53;100.00;98982.97;4936358;29;19937;-68
2021/12/21 12:45:51;;;;;;;;;;;;;;;5.56;100.00;98981.47;4937337;29;20319;-67
2021/12/21 12:48:20;;;;;;;;;;;;;;;5.52;100.00;98975.81;4937788;29;19934;-67
2021/12/21 12:50:49;;;;;;;;;;;;;;;5.55;100.00;98986.19;4938167;29;19943;-67
2021/12/21 12:53:16;;;;;;;;;;;;;;;5.52;100.00;98981.38;4937807;29;19934;-67
2021/12/21 12:55:54;;;;;;;;;;;;;;;5.54;100.00;98970.72;4929191;29;19927;-67
2021/12/21 12:58:47;;;;;;;;;;;;;;;5.57;100.00;98967.25;4918627;29;19931;-67
2021/12/21 13:01:21;;;;;;;;;;;;;;;5.52;100.00;98961.13;4917676;29;20473;-67
2021/12/21 13:03:50;;;;;;;;;;;;;;;5.46;100.00;98957.78;4917721;29;19931;-67
2021/12/21 13:06:19;;;;;;;;;;;;;;;5.50;100.00;98964.25;4918048;29;19931;-67
2021/12/21 13:08:46;;;;;;;;;;;;;;;5.42;100.00;98965.19;4917662;29;20611;-66
2021/12/21 13:11:17;;;;;;;;;;;;;;;5.39;100.00;98959.50;4917521;29;19931;-67
2021/12/21 13:13:46;;;;;;;;;;;;;;;5.35;100.00;98966.91;4929893;29;19930;-67
2021/12/21 13:16:18;;;;;;;;;;;;;;;5.34;100.00;98966.09;4937385;29;19927;-67
2021/12/21 13:18:50;;;;;;;;;;;;;;;5.27;100.00;98958.38;4937094;29;19937;-67
2021/12/21 13:21:18;;;;;;;;;;;;;;;5.29;100.00;98960.78;4936335;29;19934;-67
2021/12/21 13:23:49;;;;;;;;;;;;;;;5.28;100.00;98948.88;4926962;29;19939;-67
2021/12/21 13:26:19;;;;;;;;;;;;;;;5.29;100.00;98949.69;4918204;29;19938;-67
2021/12/21 13:28:53;;;;;;;;;;;;;;;5.30;100.00;98945.78;4918081;29;19931;-67
2021/12/21 13:31:22;;;;;;;;;;;;;;;5.27;100.00;98940.94;4928334;29;20078;-67
2021/12/21 13:33:51;;;;;;;;;;;;;;;5.24;100.00;98936.06;4925899;29;19938;-67
2021/12/21 13:36:29;;;;;;;;;;;;;;;5.22;100.00;98935.63;4937587;29;20381;-67
2021/12/21 13:38:56;;;;;;;;;;;;;;;5.21;100.00;98926.47;4930071;29;19931;-67
2021/12/21 13:41:24;;;;;;;;;;;;;;;5.19;100.00;98941.84;4935776;29;19930;-67
2021/12/21 13:43:53;;;;;;;;;;;;;;;5.17;100.00;98935.84;4933512;29;20154;-67
2021/12/21 13:46:21;;;;;;;;;;;;;;;5.11;100.00;98931.69;4921836;29;20228;-66
2021/12/21 13:48:52;;;;;;;;;;;;;;;5.17;100.00;98936.66;4930652;29;19954;-67
2021/12/21 13:51:20;;;;;;;;;;;;;;;5.18;100.00;98929.94;4935509;29;20309;-67
2021/12/21 13:53:50;;;;;;;;;;;;;;;5.19;100.00;98937.13;4937045;29;19927;-67
2021/12/21 13:56:21;;;;;;;;;;;;;;;5.17;100.00;98942.19;4935622;29;19931;-67
2021/12/21 13:58:54;;;;;;;;;;;;;;;5.16;100.00;98940.56;4935996;29;19938;-67
2021/12/21 14:01:21;;;;;;;;;;;;;;;5.15;100.00;98938.97;4936002;29;19934;-67
2021/12/21 14:03:52;;;;;;;;;;;;;;;5.17;100.00;98936.66;4936116;29;20224;-67
2021/12/21 14:06:23;;;;;;;;;;;;;;;5.13;100.00;98943.25;4935251;29;19930;-67
2021/12/21 14:08:52;;;;;;;;;;;;;;;5.09;100.00;98945.06;4935676;29;19934;-67
2021/12/21 14:11:20;;;;;;;;;;;;;;;4.99;100.00;98946.34;4932060;29;19931;-67
2021/12/21 14:13:49;;;;;;;;;;;;;;;5.01;100.00;98946.03;4931608;29;19931;-67
2021/12/21 14:16:18;;;;;;;;;;;;;;;4.99;100.00;98945.56;4932371;29;19927;-67
2021/12/21 14:18:46;;;;;;;;;;;;;;;4.93;100.00;98942.19;4935167;29;19973;-67
2021/12/21 14:21:15;;;;;;;;;;;;;;;4.95;100.00;98939.88;4934296;29;19930;-67
2021/12/21 14:23:44;;;;;;;;;;;;;;;4.95;100.00;98939.88;4923718;29;19936;-67
2021/12/21 14:26:14;;;;;;;;;;;;;;;4.99;100.00;98938.03;4925173;29;19931;-67
2021/12/21 14:28:45;;;;;;;;;;;;;;;5.06;100.00;98934.72;4934713;29;19931;-67
2021/12/21 14:31:14;;;;;;;;;;;;;;;5.08;100.00;98935.16;4935841;29;19927;-67
2021/12/21 14:33:47;;;;;;;;;;;;;;;5.12;100.00;98934.13;4936342;29;19946;-67
2021/12/21 14:36:17;;;;;;;;;;;;;;;5.14;100.00;98942.06;4929434;29;19947;-67
2021/12/21 14:39:08;;;;;;;;;;;;;;;5.14;100.00;98939.31;4934895;29;19938;-67
2021/12/21 14:41:37;;;;;;;;;;;;;;;5.07;100.00;98939.06;4922694;29;20001;-68
2021/12/21 14:44:10;;;;;;;;;;;;;;;4.97;100.00;98942.31;4907645;29;20362;-68
2021/12/21 14:46:39;;;;;;;;;;;;;;;5.00;100.00;98949.94;4935424;29;19961;-67
2021/12/21 14:49:08;;;;;;;;;;;;;;;5.01;100.00;98946.81;4931513;29;19965;-68
2021/12/21 14:51:50;;;;;;;;;;;;;;;5.00;100.00;98949.94;4935785;29;20359;-68
2021/12/21 14:54:26;;;;;;;;;;;;;;;4.97;100.00;98948.66;4932550;29;19931;-68
2021/12/21 14:57:04;;;;;;;;;;;;;;;4.82;100.00;98948.53;4936613;29;19927;-68
2021/12/21 14:59:32;;;;;;;;;;;;;;;4.84;100.00;98947.00;4927780;29;19985;-68
2021/12/21 15:02:05;;;;;;;;;;;;;;;4.88;100.00;98955.47;4934397;29;20336;-68
2021/12/21 15:08:25;;;;;;;;;;;;;;;4.85;100.00;98951.41;4934357;29;19927;-67
2021/12/21 15:10:53;;;;;;;;;;;;;;;4.88;100.00;98955.47;4934784;29;20267;-68
2021/12/21 15:13:21;;;;;;;;;;;;;;;4.90;100.00;98955.91;4934462;29;19938;-68
2021/12/21 15:15:49;;;;;;;;;;;;;;;4.92;100.00;98950.84;4933771;29;20322;-68
2021/12/21 15:18:17;;;;;;;;;;;;;;;4.92;100.00;98953.59;4928372;29;19965;-68
2021/12/21 15:20:45;;;;;;;;;;;;;;;4.86;100.00;98953.06;4926521;29;19938;-68
2021/12/21 15:23:12;;;;;;;;;;;;;;;4.87;100.00;98959.38;4930225;29;19942;-68
2021/12/21 15:25:40;;;;;;;;;;;;;;;4.87;100.00;98953.84;4929277;29;19939;-68
2021/12/21 15:28:07;;;;;;;;;;;;;;;4.78;100.00;98944.81;4930769;29;19931;-68
2021/12/21 15:30:34;;;;;;;;;;;;;;;4.70;100.00;98949.31;4934222;29;19984;-68
2021/12/21 15:33:02;;;;;;;;;;;;;;;4.60;100.00;98964.41;4928336;29;19972;-68
2021/12/21 15:35:32;;;;;;;;;;;;;;;4.51;100.00;98963.69;4934353;29;19975;-68
2021/12/21 15:38:01;;;;;;;;;;;;;;;4.46;100.00;98958.38;4935178;29;19927;-68
2021/12/21 15:40:29;;;;;;;;;;;;;;;4.47;100.00;98960.00;4934245;29;19926;-68
2021/12/21 15:42:56;;;;;;;;;;;;;;;4.42;100.00;98963.00;4923399;29;19938;-68
2021/12/21 15:45:24;;;;;;;;;;;;;;;4.38;100.00;98975.88;4928365;29;19935;-68
2021/12/21 15:47:52;;;;;;;;;;;;;;;4.40;100.00;98958.94;4936212;29;20627;-68
2021/12/21 15:50:19;;;;;;;;;;;;;;;4.44;100.00;98954.34;4930423;29;19930;-68
2021/12/21 15:52:47;;;;;;;;;;;;;;;4.46;100.00;98954.78;4929475;29;19935;-68
2021/12/21 15:55:16;;;;;;;;;;;;;;;4.42;100.00;98953.88;4937311;29;19931;-68
2021/12/21 15:57:45;;;;;;;;;;;;;;;4.39;100.00;98951.78;4934972;29;19938;-68
2021/12/21 16:00:15;;;;;;;;;;;;;;;4.37;100.00;98956.84;4930516;29;19930;-68
2021/12/21 16:02:45;;;;;;;;;;;;;;;4.42;100.00;98951.09;4933560;29;19935;-68
2021/12/21 16:05:13;;;;;;;;;;;;;;;4.47;100.00;98953.66;4928652;29;19958;-68
2021/12/21 16:07:40;;;;;;;;;;;;;;;4.46;100.00;98966.69;4937178;29;19927;-68
2021/12/21 16:10:10;;;;;;;;;;;;;;;4.43;100.00;98963.78;4932124;29;19931;-68
2021/12/21 16:12:37;;;;;;;;;;;;;;;4.47;100.00;98967.50;4932323;29;19937;-68
2021/12/21 16:15:05;;;;;;;;;;;;;;;4.45;100.00;98965.06;4936516;29;19953;-68
2021/12/21 16:17:32;;;;;;;;;;;;;;;4.47;100.00;98957.25;4936762;29;19938;-68
2021/12/21 16:19:59;;;;;;;;;;;;;;;4.46;100.00;98961.16;4930118;29;19935;-68
2021/12/21 16:22:27;;;;;;;;;;;;;;;4.51;100.00;98968.44;4936733;29;19931;-68
2021/12/21 16:24:55;;;;;;;;;;;;;;;4.50;100.00;98962.06;4937016;29;20283;-68
2021/12/21 16:27:22;;;;;;;;;;;;;;;4.51;100.00;98958.16;4933913;29;19942;-68
2021/12/21 16:29:50;;;;;;;;;;;;;;;4.54;100.00;98951.94;4936928;29;19934;-68
2021/12/21 16:32:17;;;;;;;;;;;;;;;4.57;100.00;98956.00;4935572;29;19935;-68
2021/12/21 16:34:45;;;;;;;;;;;;;;;4.50;100.00;98953.75;4924372;29;19931;-68
2021/12/21 16:37:12;;;;;;;;;;;;;;;4.42;100.00;98940.84;4919751;29;20192;-68
2021/12/21 16:39:40;;;;;;;;;;;;;;;4.33;100.00;98945.63;4937522;29;19938;-68
2021/12/21 16:42:07;;;;;;;;;;;;;;;4.29;100.00;98941.13;4936644;29;19931;-68
2021/12/21 16:44:35;;;;;;;;;;;;;;;4.24;100.00;98953.22;4937847;29;19927;-68
2021/12/21 16:47:02;;;;;;;;;;;;;;;4.31;100.00;98953.47;4933729;29;19985;-68
2021/12/21 16:49:29;;;;;;;;;;;;;;;4.30;100.00;98951.88;4936328;29;20240;-68
2021/12/21 16:51:57;;;;;;;;;;;;;;;4.21;100.00;98959.44;4936582;29;19938;-68
2021/12/21 16:54:24;;;;;;;;;;;;;;;4.17;100.00;98947.44;4935990;29;19927;-68
2021/12/21 16:56:51;;;;;;;;;;;;;;;4.14;100.00;98941.75;4928435;29;19930;-68
2021/12/21 16:59:19;;;;;;;;;;;;;;;4.09;100.00;98939.19;4936695;29;20236;-68
2021/12/21 17:01:46;;;;;;;;;;;;;;;4.04;100.00;98943.00;4937143;29;19926;-68
2021/12/21 17:04:14;;;;;;;;;;;;;;;3.99;100.00;98951.50;4931737;29;19937;-68
2021/12/21 17:06:44;;;;;;;;;;;;;;;3.95;100.00;98943.06;4936206;29;19942;-68
2021/12/21 17:09:12;;;;;;;;;;;;;;;3.91;100.00;98939.34;4927868;29;19930;-68
2021/12/21 17:11:39;;;;;;;;;;;;;;;3.91;100.00;98941.34;4933457;29;19933;-68
2021/12/21 17:14:07;;;;;;;;;;;;;;;3.95;100.00;98940.31;4936745;29;19942;-67
2021/12/21 17:16:35;;;;;;;;;;;;;;;3.91;100.00;98941.34;4930781;29;19961;-67
2021/12/21 17:19:03;;;;;;;;;;;;;;;3.88;100.00;98931.75;4938369;29;20291;-68
2021/12/21 17:21:30;;;;;;;;;;;;;;;3.96;100.00;98921.75;4934095;29;19931;-68
2021/12/21 17:23:58;;;;;;;;;;;;;;;3.97;100.00;98921.41;4937294;29;19934;-68
2021/12/21 17:26:26;;;;;;;;;;;;;;;3.98;100.00;98927.75;4936409;29;20607;-68
2021/12/21 17:28:54;;;;;;;;;;;;;;;3.89;100.00;98933.34;4934604;29;21118;-68
2021/12/21 17:31:22;;;;;;;;;;;;;;;3.82;100.00;98930.31;4936569;29;19931;-68
2021/12/21 17:33:49;;;;;;;;;;;;;;;3.90;100.00;98926.69;4936187;29;20299;-68
2021/12/21 17:36:20;;;;;;;;;;;;;;;3.86;100.00;98934.03;4937567;29;19931;-68
2021/12/21 17:38:49;;;;;;;;;;;;;;;3.86;100.00;98931.25;4936192;29;19938;-68
2021/12/21 17:41:17;;;;;;;;;;;;;;;3.87;100.00;98932.06;4929455;29;19926;-68
2021/12/21 17:43:45;;;;;;;;;;;;;;;3.90;100.00;98921.16;4937271;29;19938;-68
2021/12/21 17:46:12;;;;;;;;;;;;;;;3.86;100.00;98933.25;4937408;29;19961;-68
2021/12/21 17:48:39;;;;;;;;;;;;;;;3.85;100.00;98937.13;4925730;29;19927;-68
2021/12/21 17:51:07;;;;;;;;;;;;;;;3.85;100.00;98934.38;4925706;29;19934;-68
2021/12/21 17:53:35;;;;;;;;;;;;;;;3.88;100.00;98931.75;4934454;29;20308;-68
2021/12/21 17:56:02;;;;;;;;;;;;;;;3.86;100.00;98947.06;4932876;29;20339;-68
2021/12/21 17:58:30;;;;;;;;;;;;;;;3.84;100.00;98944.63;4936811;29;19931;-68
2021/12/21 18:00:57;;;;;;;;;;;;;;;3.83;100.00;98953.28;4930200;29;19938;-68
2021/12/21 18:03:25;;;;;;;;;;;;;;;3.83;100.00;98953.28;4935406;29;20000;-68
2021/12/21 18:05:52;;;;;;;;;;;;;;;3.81;100.00;98956.38;4936287;29;19938;-68
2021/12/21 18:08:20;;;;;;;;;;;;;;;3.91;100.00;98952.41;4938363;29;19930;-68
2021/12/21 18:10:52;;;;;;;;;;;;;;;3.95;100.00;98945.84;4930710;29;19934;-68
2021/12/21 18:13:20;;;;;;;;;;;;;;;3.98;100.00;98953.47;4935960;29;19930;-68
2021/12/21 18:15:47;;;;;;;;;;;;;;;3.94;100.00;98965.53;4936307;29;19931;-68
2021/12/21 18:18:14;;;;;;;;;;;;;;;3.93;100.00;98975.00;4936072;29;19931;-68
2021/12/21 18:20:42;;;;;;;;;;;;;;;3.95;100.00;98967.16;4936430;29;19996;-68
2021/12/21 18:23:10;;;;;;;;;;;;;;;3.97;100.00;98971.22;4936142;29;19938;-68
2021/12/21 18:25:39;;;;;;;;;;;;;;;4.00;100.00;98958.66;4936199;29;20228;-68
2021/12/21 18:28:07;;;;;;;;;;;;;;;4.04;100.00;98954.06;4936120;29;19947;-68
2021/12/21 18:30:34;;;;;;;;;;;;;;;4.06;100.00;98962.81;4937226;29;19935;-68
2021/12/21 18:33:02;;;;;;;;;;;;;;;4.04;100.00;98958.78;4936542;29;19938;-68
2021/12/21 18:35:29;;;;;;;;;;;;;;;4.02;100.00;98961.06;4936761;29;19930;-68
2021/12/21 18:37:58;;;;;;;;;;;;;;;3.96;100.00;98955.75;4936089;29;20227;-68
2021/12/21 18:40:27;;;;;;;;;;;;;;;3.90;100.00;98962.66;4936053;29;19934;-68
2021/12/21 18:42:56;;;;;;;;;;;;;;;3.83;100.00;98964.34;4934866;29;20197;-68
2021/12/21 18:45:24;;;;;;;;;;;;;;;3.83;100.00;98967.91;4934707;29;19931;-68